createdAt,value
2023-05-22T00:01:11.150Z,8.27
2023-05-22T00:03:38.691Z,9.43
2023-05-22T00:06:06.116Z,9.90
2023-05-22T00:08:33.081Z,8.73
2023-05-22T00:11:00.173Z,9.53
2023-05-22T00:13:27.172Z,10.03
2023-05-22T00:15:54.178Z,10.20
2023-05-22T00:18:21.309Z,9.70
2023-05-22T00:20:48.276Z,9.20
2023-05-22T00:23:15.764Z,8.93
2023-05-22T00:25:42.824Z,8.90
2023-05-22T00:28:10.744Z,11.43
2023-05-22T00:30:38.133Z,10.83
2023-05-22T00:33:06.188Z,9.83
2023-05-22T00:35:33.877Z,10.57
2023-05-22T00:38:05.441Z,10.50
2023-05-22T00:40:32.638Z,9.97
2023-05-22T00:42:59.747Z,10.73
2023-05-22T00:45:26.637Z,10.93
2023-05-22T00:47:53.805Z,10.00
2023-05-22T00:50:21.026Z,10.53
2023-05-22T00:52:48.176Z,9.70
2023-05-22T00:55:16.838Z,10.47
2023-05-22T00:57:44.199Z,10.57
2023-05-22T01:00:15.202Z,11.43
2023-05-22T01:02:43.002Z,10.10
2023-05-22T01:05:12.984Z,18.63
2023-05-22T01:07:40.474Z,9.57
2023-05-22T01:10:08.671Z,11.43
2023-05-22T01:13:04.631Z,11.23
2023-05-22T01:15:43.578Z,10.93
2023-05-22T01:18:44.415Z,13.77
2023-05-22T01:21:30.075Z,12.17
2023-05-22T01:24:43.328Z,10.70
2023-05-22T01:28:01.854Z,9.83
2023-05-22T01:30:53.199Z,11.00
2023-05-22T01:33:26.012Z,10.47
2023-05-22T01:36:00.014Z,15.07
2023-05-22T01:38:28.977Z,11.30
2023-05-22T01:40:57.087Z,9.80
2023-05-22T01:43:24.067Z,10.40
2023-05-22T01:45:51.370Z,10.93
2023-05-22T01:48:18.439Z,10.23
2023-05-22T01:50:51.516Z,8.87
2023-05-22T01:53:32.622Z,12.43
2023-05-22T01:56:09.134Z,10.77
2023-05-22T01:59:10.433Z,11.83
2023-05-22T02:01:39.486Z,10.80
2023-05-22T02:04:09.997Z,10.80
2023-05-22T02:06:41.165Z,11.27
2023-05-22T02:09:10.692Z,13.20
2023-05-22T02:11:41.358Z,11.60
2023-05-22T02:14:12.080Z,11.80
2023-05-22T02:16:39.487Z,11.63
2023-05-22T02:19:06.701Z,11.20
2023-05-22T02:21:36.778Z,11.67
2023-05-22T02:24:04.129Z,10.60
2023-05-22T02:26:31.085Z,10.83
2023-05-22T02:28:58.394Z,10.77
2023-05-22T02:31:26.216Z,11.10
2023-05-22T02:33:53.194Z,11.47
2023-05-22T02:36:20.602Z,10.17
2023-05-22T02:38:47.529Z,13.30
2023-05-22T02:41:14.740Z,12.10
2023-05-22T02:43:41.767Z,10.77
2023-05-22T02:46:08.682Z,12.53
2023-05-22T02:48:36.127Z,11.17
2023-05-22T02:51:03.464Z,11.97
2023-05-22T02:53:30.619Z,10.17
2023-05-22T02:55:58.728Z,11.00
2023-05-22T02:58:25.724Z,9.90
2023-05-22T03:00:53.625Z,10.40
2023-05-22T03:03:20.782Z,10.40
2023-05-22T03:05:47.769Z,9.10
2023-05-22T03:08:15.858Z,9.47
2023-05-22T03:10:42.808Z,9.80
2023-05-22T03:13:09.725Z,9.03
2023-05-22T03:15:36.620Z,9.07
2023-05-22T03:18:03.578Z,10.53
2023-05-22T03:20:31.017Z,10.17
2023-05-22T03:22:57.965Z,9.67
2023-05-22T03:25:24.927Z,12.90
2023-05-22T03:27:51.882Z,10.03
2023-05-22T03:30:18.826Z,10.90
2023-05-22T03:32:46.063Z,9.90
2023-05-22T03:35:16.303Z,10.03
2023-05-22T03:37:43.217Z,9.03
2023-05-22T03:40:10.757Z,10.30
2023-05-22T03:42:38.027Z,9.30
2023-05-22T03:45:06.287Z,11.50
2023-05-22T03:47:34.299Z,12.17
2023-05-22T03:50:01.342Z,13.97
2023-05-22T03:52:28.306Z,9.47
2023-05-22T03:54:55.291Z,12.43
2023-05-22T03:57:22.194Z,9.90
2023-05-22T03:59:49.284Z,11.40
2023-05-22T04:02:17.232Z,9.53
2023-05-22T04:04:48.443Z,12.70
2023-05-22T04:07:18.325Z,10.37
2023-05-22T04:09:45.506Z,11.17
2023-05-22T04:12:12.500Z,9.70
2023-05-22T04:14:39.397Z,10.47
2023-05-22T04:17:06.447Z,10.03
2023-05-22T04:19:33.447Z,14.40
2023-05-22T04:22:00.454Z,9.97
2023-05-22T04:24:27.508Z,8.33
2023-05-22T04:26:54.456Z,11.40
2023-05-22T04:29:22.684Z,10.57
2023-05-22T04:31:49.694Z,10.63
2023-05-22T04:34:18.269Z,9.90
2023-05-22T04:36:45.455Z,10.20
2023-05-22T04:39:13.850Z,9.53
2023-05-22T04:41:41.292Z,10.67
2023-05-22T04:44:08.433Z,10.03
2023-05-22T04:46:35.814Z,10.60
2023-05-22T04:49:03.154Z,9.60
2023-05-22T04:51:32.200Z,14.07
2023-05-22T04:53:59.145Z,10.17
2023-05-22T04:56:36.214Z,9.73
2023-05-22T04:59:05.353Z,9.73
2023-05-22T05:01:33.550Z,10.07
2023-05-22T05:04:01.807Z,9.60
2023-05-22T05:06:28.859Z,9.27
2023-05-22T05:08:55.757Z,10.33
2023-05-22T05:11:22.724Z,9.67
2023-05-22T05:13:49.629Z,8.50
2023-05-22T05:16:16.629Z,9.83
2023-05-22T05:18:43.775Z,10.10
2023-05-22T05:21:10.895Z,9.50
2023-05-22T05:23:37.889Z,12.20
2023-05-22T05:26:04.891Z,10.63
2023-05-22T05:28:31.860Z,9.87
2023-05-22T05:30:58.754Z,10.43
2023-05-22T05:33:25.829Z,9.30
2023-05-22T05:35:52.794Z,9.77
2023-05-22T05:38:19.980Z,10.50
2023-05-22T05:40:47.353Z,9.77
2023-05-22T05:43:17.273Z,9.47
2023-05-22T05:45:44.763Z,9.73
2023-05-22T05:48:12.111Z,9.47
2023-05-22T05:50:39.478Z,8.77
2023-05-22T05:53:08.514Z,11.97
2023-05-22T05:55:35.557Z,8.50
2023-05-22T05:58:02.754Z,9.80
2023-05-22T06:00:29.918Z,9.80
2023-05-22T06:02:56.898Z,9.77
2023-05-22T06:05:23.910Z,12.77
2023-05-22T06:07:51.676Z,9.10
2023-05-22T06:10:18.736Z,10.07
2023-05-22T06:12:45.649Z,10.40
2023-05-22T06:15:13.540Z,9.13
2023-05-22T06:17:40.888Z,9.77
2023-05-22T06:20:09.029Z,9.20
2023-05-22T06:22:36.486Z,8.70
2023-05-22T06:25:03.713Z,10.23
2023-05-22T06:27:30.670Z,8.70
2023-05-22T06:29:57.759Z,10.40
2023-05-22T06:32:24.855Z,11.03
2023-05-22T06:34:51.999Z,9.47
2023-05-22T06:37:18.942Z,10.27
2023-05-22T06:39:45.839Z,8.83
2023-05-22T06:42:12.766Z,9.33
2023-05-22T06:44:39.736Z,9.73
2023-05-22T06:47:06.809Z,8.73
2023-05-22T06:49:33.776Z,8.33
2023-05-22T06:52:01.481Z,8.47
2023-05-22T06:54:29.432Z,9.70
2023-05-22T06:56:57.451Z,8.50
2023-05-22T06:59:24.353Z,9.03
2023-05-22T07:01:51.284Z,9.07
2023-05-22T07:04:18.536Z,8.90
2023-05-22T07:06:46.117Z,8.97
2023-05-22T07:09:13.785Z,9.43
2023-05-22T07:11:42.741Z,9.37
2023-05-22T07:14:12.277Z,9.93
2023-05-22T07:16:41.174Z,9.23
2023-05-22T07:19:11.939Z,9.43
2023-05-22T07:21:39.186Z,8.87
2023-05-22T07:24:09.564Z,10.53
2023-05-22T07:26:38.493Z,9.17
2023-05-22T07:29:05.684Z,9.90
2023-05-22T07:31:34.214Z,8.83
2023-05-22T07:34:01.341Z,11.03
2023-05-22T07:36:28.332Z,9.23
2023-05-22T07:38:55.265Z,9.90
2023-05-22T07:41:22.597Z,8.73
2023-05-22T07:43:50.281Z,8.33
2023-05-22T07:46:17.618Z,9.23
2023-05-22T07:48:44.803Z,11.20
2023-05-22T07:51:13.443Z,11.73
2023-05-22T07:53:40.437Z,8.30
2023-05-22T07:56:07.510Z,11.10
2023-05-22T07:58:34.549Z,9.87
2023-05-22T08:03:39.648Z,9.70
2023-05-22T08:06:07.365Z,7.93
2023-05-22T08:08:34.558Z,8.73
2023-05-22T08:11:04.165Z,9.07
2023-05-22T08:13:32.171Z,7.90
2023-05-22T08:16:00.459Z,8.80
2023-05-22T08:18:29.294Z,9.30
2023-05-22T08:20:56.813Z,8.50
2023-05-22T08:23:24.068Z,8.70
2023-05-22T08:25:50.999Z,8.93
2023-05-22T08:28:18.075Z,8.80
2023-05-22T08:30:44.973Z,8.83
2023-05-22T08:33:12.184Z,8.70
2023-05-22T08:35:39.532Z,8.63
2023-05-22T08:38:06.494Z,9.10
2023-05-22T08:40:40.104Z,9.83
2023-05-22T08:43:08.050Z,17.20
2023-05-22T08:45:35.402Z,9.90
2023-05-22T08:48:06.589Z,8.57
2023-05-22T08:50:41.970Z,8.93
2023-05-22T08:53:14.804Z,9.10
2023-05-22T08:55:42.418Z,10.17
2023-05-22T08:58:11.500Z,9.57
2023-05-22T09:00:38.930Z,9.70
2023-05-22T09:03:10.029Z,9.00
2023-05-22T09:05:37.133Z,12.90
2023-05-22T09:08:15.810Z,9.13
2023-05-22T09:10:46.460Z,11.10
2023-05-22T09:13:31.746Z,9.37
2023-05-22T09:16:14.908Z,8.60
2023-05-22T09:18:42.613Z,8.70
2023-05-22T09:21:25.650Z,7.00
2023-05-22T09:24:01.394Z,8.53
2023-05-22T09:26:29.701Z,7.60
2023-05-22T09:28:59.901Z,7.40
2023-05-22T09:31:29.119Z,9.00
2023-05-22T09:33:56.328Z,8.13
2023-05-22T09:36:35.004Z,8.77
2023-05-22T09:39:04.592Z,9.53
2023-05-22T09:41:39.416Z,7.37
2023-05-22T09:44:15.417Z,9.00
2023-05-22T09:46:47.610Z,8.57
2023-05-22T09:49:16.692Z,7.90
2023-05-22T09:51:49.211Z,8.30
2023-05-22T09:54:18.643Z,8.30
2023-05-22T09:56:50.605Z,8.53
2023-05-22T09:59:27.082Z,12.60
2023-05-22T10:01:54.591Z,7.73
2023-05-22T10:04:24.101Z,8.60
2023-05-22T10:06:57.093Z,7.63
2023-05-22T10:09:35.680Z,8.90
2023-05-22T10:12:07.983Z,8.87
2023-05-22T10:14:36.538Z,7.30
2023-05-22T10:17:06.437Z,8.23
2023-05-22T10:19:37.797Z,7.80
2023-05-22T10:22:07.283Z,8.70
2023-05-22T10:24:34.982Z,8.37
2023-05-22T10:27:02.781Z,10.97
2023-05-22T10:29:50.642Z,9.13
2023-05-22T10:32:54.855Z,7.97
2023-05-22T10:35:55.198Z,7.30
2023-05-22T10:39:03.929Z,7.43
2023-05-22T10:41:31.199Z,7.67
2023-05-22T10:43:58.203Z,7.03
2023-05-22T10:46:25.540Z,7.73
2023-05-22T10:48:55.202Z,10.07
2023-05-22T10:51:23.366Z,12.00
2023-05-22T10:53:58.054Z,8.20
2023-05-22T10:56:35.270Z,7.47
2023-05-22T10:59:07.186Z,7.43
2023-05-22T11:01:37.892Z,7.83
2023-05-22T11:04:07.129Z,7.73
2023-05-22T11:07:04.942Z,10.53
2023-05-22T11:09:47.985Z,8.60
2023-05-22T11:12:25.691Z,8.17
2023-05-22T11:15:32.181Z,9.90
2023-05-22T11:18:05.386Z,6.90
2023-05-22T11:20:39.932Z,8.00
2023-05-22T11:23:08.674Z,9.57
2023-05-22T11:25:38.399Z,7.10
2023-05-22T11:28:07.719Z,7.13
2023-05-22T11:30:35.854Z,7.33
2023-05-22T11:33:03.270Z,9.10
2023-05-22T11:35:30.455Z,10.43
2023-05-22T11:37:58.710Z,8.23
2023-05-22T11:40:29.413Z,7.67
2023-05-22T11:42:57.002Z,8.07
2023-05-22T11:45:24.350Z,7.17
2023-05-22T11:47:51.675Z,7.53
2023-05-22T11:52:49.989Z,7.00
2023-05-22T11:55:17.061Z,7.73
2023-05-22T11:57:44.302Z,7.17
2023-05-22T12:00:12.145Z,7.70
2023-05-22T12:02:45.601Z,9.33
2023-05-22T12:05:12.693Z,6.70
2023-05-22T12:07:39.902Z,8.70
2023-05-22T12:10:08.064Z,7.10
2023-05-22T12:12:35.052Z,8.10
2023-05-22T12:15:07.236Z,6.90
2023-05-22T12:17:39.542Z,8.80
2023-05-22T12:20:07.222Z,6.80
2023-05-22T12:22:41.065Z,7.60
2023-05-22T12:25:20.685Z,7.53
2023-05-22T12:27:47.725Z,7.93
2023-05-22T12:30:16.044Z,10.83
2023-05-22T12:32:50.517Z,8.20
2023-05-22T12:35:18.547Z,6.70
2023-05-22T12:37:51.303Z,7.00
2023-05-22T12:40:18.458Z,7.47
2023-05-22T12:42:45.727Z,8.93
2023-05-22T12:45:13.438Z,7.53
2023-05-22T12:47:40.628Z,8.10
2023-05-22T12:50:08.832Z,6.97
2023-05-22T12:52:36.137Z,6.73
2023-05-22T12:55:03.249Z,9.03
2023-05-22T12:57:30.331Z,7.30
2023-05-22T12:59:57.373Z,7.80
2023-05-22T13:02:24.809Z,14.90
2023-05-22T13:04:51.873Z,7.53
2023-05-22T13:07:18.853Z,6.47
2023-05-22T13:09:45.746Z,6.43
2023-05-22T13:12:12.779Z,7.57
2023-05-22T13:14:40.232Z,7.30
2023-05-22T13:17:07.481Z,7.13
2023-05-22T13:19:34.806Z,7.03
2023-05-22T13:22:01.870Z,7.10
2023-05-22T13:24:28.883Z,8.50
2023-05-22T13:26:55.906Z,8.00
2023-05-22T13:29:22.843Z,7.27
2023-05-22T13:31:49.813Z,7.30
2023-05-22T13:34:16.918Z,8.27
2023-05-22T13:36:44.070Z,7.40
2023-05-22T13:39:11.108Z,6.60
2023-05-22T13:41:38.042Z,6.90
2023-05-22T13:44:04.943Z,7.80
2023-05-22T13:46:32.056Z,7.30
2023-05-22T13:48:59.988Z,7.23
2023-05-22T13:51:26.972Z,7.73
2023-05-22T13:53:54.207Z,7.10
2023-05-22T13:56:23.543Z,7.17
2023-05-22T13:58:50.470Z,10.77
2023-05-22T14:01:17.422Z,6.43
2023-05-22T14:03:44.685Z,7.87
2023-05-22T14:06:11.821Z,6.97
2023-05-22T14:08:38.826Z,7.33
2023-05-22T14:11:05.985Z,8.77
2023-05-22T14:13:32.968Z,7.10
2023-05-22T14:15:59.912Z,7.27
2023-05-22T14:18:27.444Z,6.53
2023-05-22T14:20:54.392Z,8.10
2023-05-22T14:23:21.328Z,7.77
2023-05-22T14:25:48.214Z,8.57
2023-05-22T14:28:16.242Z,6.97
2023-05-22T14:30:43.299Z,7.60
2023-05-22T14:33:11.193Z,6.57
2023-05-22T14:35:38.262Z,7.40
2023-05-22T14:38:05.342Z,6.83
2023-05-22T14:40:32.369Z,6.63
2023-05-22T14:42:59.303Z,7.73
2023-05-22T14:45:26.215Z,8.60
2023-05-22T14:47:53.190Z,7.33
2023-05-22T14:50:20.921Z,6.00
2023-05-22T14:52:49.610Z,7.87
2023-05-22T14:55:17.680Z,6.90
2023-05-22T14:57:44.919Z,7.10
2023-05-22T15:00:13.116Z,6.97
2023-05-22T15:02:40.992Z,6.57
2023-05-22T15:05:09.536Z,6.33
2023-05-22T15:10:09.416Z,7.10
2023-05-22T15:12:36.323Z,7.70
2023-05-22T15:15:03.525Z,6.50
2023-05-22T15:17:30.494Z,7.60
2023-05-22T15:19:57.490Z,7.40
2023-05-22T15:22:24.499Z,6.23
2023-05-22T15:25:12.216Z,7.27
2023-05-22T15:27:40.296Z,7.33
2023-05-22T15:30:09.696Z,7.43
2023-05-22T15:32:38.072Z,6.53
2023-05-22T15:35:07.324Z,5.97
2023-05-22T15:37:36.198Z,10.37
2023-05-22T15:40:05.875Z,7.70
2023-05-22T15:42:32.891Z,6.63
2023-05-22T15:45:00.485Z,9.40
2023-05-22T15:47:29.047Z,6.43
2023-05-22T15:49:55.949Z,7.20
2023-05-22T15:52:24.285Z,6.83
2023-05-22T15:54:51.421Z,6.90
2023-05-22T15:57:18.332Z,10.97
2023-05-22T15:59:47.077Z,7.10
2023-05-22T16:02:14.338Z,7.07
2023-05-22T16:04:41.414Z,6.67
2023-05-22T16:07:08.405Z,10.00
2023-05-22T16:09:36.051Z,7.53
2023-05-22T16:12:04.305Z,7.17
2023-05-22T16:14:31.718Z,7.20
2023-05-22T16:16:58.707Z,7.17
2023-05-22T16:19:25.732Z,6.70
2023-05-22T16:21:53.763Z,6.93
2023-05-22T16:24:20.649Z,6.83
2023-05-22T16:26:47.718Z,7.80
2023-05-22T16:29:14.694Z,6.77
2023-05-22T16:31:41.793Z,6.30
2023-05-22T16:34:08.916Z,6.80
2023-05-22T16:36:35.938Z,6.57
2023-05-22T16:39:03.263Z,7.07
2023-05-22T16:41:30.357Z,6.90
2023-05-22T16:43:57.266Z,8.13
2023-05-22T16:46:24.327Z,7.80
2023-05-22T16:48:51.297Z,7.10
2023-05-22T16:51:18.267Z,7.00
2023-05-22T16:53:46.531Z,7.07
2023-05-22T16:56:14.465Z,9.23
2023-05-22T16:58:41.389Z,9.33
2023-05-22T17:01:08.646Z,7.13
2023-05-22T17:03:35.809Z,7.50
2023-05-22T17:06:03.497Z,7.87
2023-05-22T17:08:32.040Z,10.50
2023-05-22T17:10:58.933Z,11.53
2023-05-22T17:13:26.092Z,7.30
2023-05-22T17:15:53.089Z,12.07
2023-05-22T17:18:20.816Z,7.50
2023-05-22T17:20:53.858Z,6.37
2023-05-22T17:23:21.268Z,7.13
2023-05-22T17:25:48.474Z,6.67
2023-05-22T17:28:15.713Z,7.50
2023-05-22T17:30:45.140Z,7.00
2023-05-22T17:33:12.739Z,6.63
2023-05-22T17:35:39.723Z,6.53
2023-05-22T17:38:08.378Z,7.30
2023-05-22T17:40:44.268Z,11.00
2023-05-22T17:43:13.439Z,6.90
2023-05-22T17:45:40.600Z,10.20
2023-05-22T17:48:08.196Z,19.80
2023-05-22T17:50:35.328Z,55.37
2023-05-22T17:53:02.546Z,84.93
2023-05-22T17:55:29.508Z,63.37
2023-05-22T17:57:56.601Z,27.40
2023-05-22T18:00:23.780Z,33.83
2023-05-22T18:02:50.884Z,18.33
2023-05-22T18:05:17.957Z,6.60
2023-05-22T18:07:44.856Z,7.47
2023-05-22T18:10:11.891Z,9.00
2023-05-22T18:12:38.927Z,10.90
2023-05-22T18:15:09.424Z,8.23
2023-05-22T18:17:36.452Z,8.27
2023-05-22T18:20:06.738Z,8.03
2023-05-22T18:22:38.147Z,9.07
2023-05-22T18:25:07.245Z,9.40
2023-05-22T18:27:36.396Z,9.23
2023-05-22T18:30:05.145Z,7.40
2023-05-22T18:32:32.413Z,7.23
2023-05-22T18:35:03.471Z,9.37
2023-05-22T18:37:30.859Z,7.90
2023-05-22T18:39:58.151Z,6.97
2023-05-22T18:42:25.127Z,7.47
2023-05-22T18:44:52.162Z,10.73
2023-05-22T18:47:19.100Z,8.60
2023-05-22T18:49:46.076Z,8.53
2023-05-22T18:52:13.112Z,8.47
2023-05-22T18:54:40.093Z,9.17
2023-05-22T18:57:07.018Z,8.37
2023-05-22T18:59:33.944Z,8.30
2023-05-22T19:02:00.982Z,10.00
2023-05-22T19:04:27.980Z,8.93
2023-05-22T19:06:56.322Z,9.30
2023-05-22T19:09:24.022Z,9.10
2023-05-22T19:11:51.084Z,8.97
2023-05-22T19:14:18.074Z,8.20
2023-05-22T19:16:45.245Z,10.47
2023-05-22T19:19:12.325Z,10.30
2023-05-22T19:21:39.335Z,10.03
2023-05-22T19:24:07.282Z,10.70
2023-05-22T19:26:34.276Z,9.00
2023-05-22T19:29:01.208Z,10.50
2023-05-22T19:31:29.449Z,10.80
2023-05-22T19:33:56.796Z,9.13
2023-05-22T19:36:23.692Z,8.90
2023-05-22T19:38:52.529Z,9.67
2023-05-22T19:41:20.693Z,14.30
2023-05-22T19:43:47.607Z,11.03
2023-05-22T19:46:14.943Z,9.13
2023-05-22T19:48:41.885Z,10.93
2023-05-22T19:51:08.856Z,10.20
2023-05-22T19:53:36.503Z,10.00
2023-05-22T19:56:03.499Z,10.23
2023-05-22T19:58:30.595Z,11.10
2023-05-22T20:00:57.479Z,10.23
2023-05-22T20:03:26.109Z,10.77
2023-05-22T20:05:53.674Z,10.07
2023-05-22T20:08:22.208Z,10.17
2023-05-22T20:10:49.425Z,11.30
2023-05-22T20:13:16.475Z,12.20
2023-05-22T20:15:43.402Z,11.30
2023-05-22T20:18:10.773Z,11.60
2023-05-22T20:20:37.846Z,11.80
2023-05-22T20:23:04.760Z,13.33
2023-05-22T20:25:31.755Z,14.23
2023-05-22T20:27:58.679Z,12.93
2023-05-22T20:30:25.681Z,11.00
2023-05-22T20:32:52.923Z,12.77
2023-05-22T20:35:20.074Z,11.60
2023-05-22T20:37:47.426Z,12.17
2023-05-22T20:40:15.895Z,12.70
2023-05-22T20:42:44.084Z,11.63
2023-05-22T20:45:14.426Z,13.93
2023-05-22T20:47:43.329Z,10.50
2023-05-22T20:50:11.018Z,9.70
2023-05-22T20:52:38.050Z,12.50
2023-05-22T20:55:06.673Z,10.70
2023-05-22T20:57:34.445Z,16.83
2023-05-22T21:00:01.625Z,10.90
2023-05-22T21:02:28.576Z,9.53
2023-05-22T21:04:55.619Z,9.33
2023-05-22T21:07:22.560Z,10.50
2023-05-22T21:09:49.504Z,9.80
2023-05-22T21:12:16.468Z,10.43
2023-05-22T21:14:43.990Z,9.83
2023-05-22T21:17:11.042Z,11.20
2023-05-22T21:19:38.098Z,11.00
2023-05-22T21:22:05.400Z,9.70
2023-05-22T21:24:32.779Z,10.27
2023-05-22T21:27:00.458Z,10.13
2023-05-22T21:29:27.404Z,14.77
2023-05-22T21:31:54.436Z,13.37
2023-05-22T21:34:21.427Z,11.30
2023-05-22T21:36:50.358Z,11.33
2023-05-22T21:39:17.244Z,9.57
2023-05-22T21:41:44.217Z,11.70
2023-05-22T21:44:11.185Z,10.97
2023-05-22T21:46:38.129Z,10.30
2023-05-22T21:49:05.949Z,10.93
2023-05-22T21:51:32.912Z,11.40
2023-05-22T21:53:59.962Z,12.23
2023-05-22T21:56:27.506Z,10.70
2023-05-22T21:58:54.416Z,12.50
2023-05-22T22:01:21.785Z,10.13
2023-05-22T22:03:48.833Z,10.30
2023-05-22T22:06:16.113Z,9.57
2023-05-22T22:08:43.014Z,11.10
2023-05-22T22:11:09.904Z,11.13
2023-05-22T22:13:36.889Z,10.47
2023-05-22T22:16:04.293Z,9.40
2023-05-22T22:18:34.370Z,10.10
2023-05-22T22:21:02.205Z,11.60
2023-05-22T22:23:29.668Z,12.00
2023-05-22T22:25:56.632Z,11.27
2023-05-22T22:28:23.791Z,11.20
2023-05-22T22:30:50.825Z,11.80
2023-05-22T22:33:17.849Z,11.80
2023-05-22T22:35:44.845Z,13.53
2023-05-22T22:38:11.810Z,13.07
2023-05-22T22:40:38.870Z,11.07
2023-05-22T22:43:06.099Z,13.20
2023-05-22T22:45:33.267Z,12.87
2023-05-22T22:48:03.357Z,11.93
2023-05-22T22:50:30.352Z,15.50
2023-05-22T22:52:57.340Z,15.27
2023-05-22T22:55:24.487Z,12.50
2023-05-22T22:57:51.824Z,13.40
2023-05-22T23:00:20.041Z,14.47
2023-05-22T23:02:47.027Z,13.23
2023-05-22T23:05:14.720Z,13.43
2023-05-22T23:07:42.049Z,15.80
2023-05-22T23:10:09.718Z,12.27
2023-05-22T23:12:36.632Z,14.63
2023-05-22T23:15:04.979Z,15.20
2023-05-22T23:17:31.910Z,14.63
2023-05-22T23:19:58.812Z,14.60
2023-05-22T23:22:25.724Z,16.80
2023-05-22T23:24:52.688Z,14.37
2023-05-22T23:27:20.223Z,15.23
2023-05-22T23:29:47.152Z,13.03
2023-05-22T23:32:15.000Z,15.43
2023-05-22T23:34:42.243Z,16.73
2023-05-22T23:37:09.680Z,15.13
2023-05-22T23:39:36.616Z,14.80
2023-05-22T23:42:03.816Z,17.83
2023-05-22T23:44:31.838Z,13.50
2023-05-22T23:46:59.279Z,15.57
2023-05-22T23:49:26.729Z,15.20
2023-05-22T23:51:53.857Z,13.37
2023-05-22T23:54:23.735Z,16.63
2023-05-22T23:56:50.689Z,15.03
2023-05-22T23:59:17.691Z,15.87
